Date,TemperatureHighF,TemperatureAvgF,TemperatureLowF,DewpointHighF,DewpointAvgF,DewpointLowF,HumidityHigh,HumidityAvg,HumidityLow,PressureMaxIn,PressureMinIn,WindSpeedMaxMPH,WindSpeedAvgMPH,GustSpeedMaxMPH,PrecipitationSumIn
2013-6-1,96.3,74.5,59.4,68.7,60.2,54.6,90,66,27,29.44,29.26,10,1,13,0.04
2013-6-2,95.4,74.7,61.9,70.9,64.1,58.3,93,74,36,29.32,29.09,11,2,23,0.00
2013-6-3,83.3,72.0,54.3,65.3,52.6,45.5,73,52,32,29.32,29.14,6,2,10,0.00
2013-6-4,68.0,57.9,46.0,47.4,39.2,33.0,84,53,33,29.56,29.32,12,2,17,0.00
2013-6-5,77.4,62.0,48.4,40.4,36.1,31.4,64,40,23,29.65,29.53,8,2,12,0.05
2013-6-6,74.7,60.3,49.1,47.4,41.7,38.1,73,53,32,29.71,29.59,5,1,6,0.00
2013-6-7,60.3,55.8,52.0,53.8,49.8,45.4,94,81,61,29.62,29.47,6,0,6,0.66
2013-6-8,73.8,61.7,52.2,57.7,53.2,50.5,96,76,50,29.47,29.20,8,1,11,0.70
2013-6-9,79.5,65.5,54.0,59.7,52.5,46.2,94,67,34,29.68,29.47,9,1,9,0.00
2013-6-10,76.3,62.6,48.7,55.4,51.5,44.4,89,69,43,29.74,29.56,6,1,6,0.00
2013-6-11,62.4,57.9,55.6,58.5,54.4,50.9,94,88,74,29.56,29.12,4,0,4,1.12
2013-6-12,65.1,59.6,54.7,54.2,50.9,47.0,97,74,56,29.32,29.09,10,2,11,0.08
2013-6-13,72.7,61.1,47.8,55.7,50.5,44.0,93,70,46,29.32,29.20,6,1,6,0.00
2013-6-14,79.7,64.8,52.9,57.0,48.7,41.7,94,62,27,29.26,29.12,8,1,11,0.00
2013-6-15,81.0,65.2,52.2,49.2,38.2,32.7,80,39,24,29.44,29.26,11,2,11,0.00
2013-6-16,81.1,61.3,46.6,58.1,49.6,40.1,91,68,35,29.50,29.23,6,1,7,0.05
2013-6-17,81.1,63.2,52.0,62.2,57.0,49.8,96,82,36,29.41,29.26,8,1,10,0.08
2013-6-18,72.3,60.5,50.2,59.7,53.0,47.8,97,78,49,29.53,29.41,5,0,5,0.00
2013-6-19,77.5,59.9,44.2,53.6,42.1,36.2,94,58,26,29.65,29.44,10,2,10,0.00
2013-6-20,82.8,61.4,42.3,50.4,44.2,36.5,84,57,30,29.74,29.59,8,1,8,0.00
2013-6-21,85.1,64.0,47.8,58.1,50.3,42.3,85,64,31,29.74,29.59,5,0,6,0.04
2013-6-22,81.1,66.3,53.4,66.3,57.6,48.5,93,75,45,29.71,29.59,4,0,4,0.04
2013-6-23,81.5,69.4,63.3,69.6,65.7,62.0,97,89,63,29.62,29.41,4,0,5,0.79
2013-6-24,92.7,75.6,66.4,74.2,66.3,60.4,98,76,35,29.47,29.29,6,1,6,0.00
2013-6-25,91.0,74.3,62.8,70.7,65.5,59.5,94,76,47,29.35,29.17,8,0,8,0.16
2013-6-26,78.4,70.5,63.7,71.3,66.6,61.2,97,88,71,29.32,29.20,6,0,6,0.00
2013-6-27,73.2,65.4,60.1,65.1,61.6,58.9,97,88,71,29.35,29.26,4,0,4,0.09
2013-6-28,66.4,62.0,58.8,63.7,60.8,57.9,98,96,88,29.32,29.03,3,0,3,1.16
2013-6-29,82.2,67.8,62.6,72.7,65.4,60.0,98,93,68,29.20,29.00,8,0,17,0.87
2013-6-30,84.9,72.0,61.2,71.6,65.8,60.6,98,83,56,29.38,29.17,6,1,6,0.00